Terminal Aerodrome Forecast
Issued by NWS Des Moines, IA

Home | Current Version | Previous Version | Text Only | Print | Product List | Glossary On
Versions: 1 2 3 4 5 6 7 8 9 10 11 12 13 14 15 16 17 18 19 20 21 22 23 24 25 26 27 28 29 30 31 32 33 34 35 36 37
000
FTUS43 KDMX 291133
TAFDSM
TAF
KDSM 291133Z 2912/3012 04015KT P6SM FEW020 SCT035 OVC050
     FM291330 05013G19KT P6SM VCSH SCT020 OVC035
     FM291500 05014G21KT 4SM -SHRA BR SCT015 OVC025
     FM291800 04015G23KT 2SM SHRA BR SCT010 OVC018
     FM292300 05015G23KT 5SM BR VCSH SCT008 OVC013
     FM300300 05015G23KT 3SM -SHRA BR OVC007=

USA.gov is the U.S. government's official web portal to all federal, state and local government web resources and services.